sensor_id;sensor_type;location;lat;lon;timestamp;pressure;altitude;pressure_sealevel;temperature;humidity
53874;BME280;62246;50.938;4.058;2022-08-19T00:01:44;101486.97;;;18.78;82.47
53874;BME280;62246;50.938;4.058;2022-08-19T00:04:12;101489.25;;;18.73;82.89
53874;BME280;62246;50.938;4.058;2022-08-19T00:06:40;101487.06;;;18.68;82.85
53874;BME280;62246;50.938;4.058;2022-08-19T00:09:09;101488.31;;;18.64;83.67
53874;BME280;62246;50.938;4.058;2022-08-19T00:11:36;101497.38;;;18.63;83.78
53874;BME280;62246;50.938;4.058;2022-08-19T00:14:04;101497.00;;;18.58;84.66
53874;BME280;62246;50.938;4.058;2022-08-19T00:16:29;101507.75;;;18.48;84.88
53874;BME280;62246;50.938;4.058;2022-08-19T00:18:55;101501.03;;;18.44;84.63
53874;BME280;62246;50.938;4.058;2022-08-19T00:21:22;101507.63;;;18.50;84.27
53874;BME280;62246;50.938;4.058;2022-08-19T00:23:48;101513.69;;;18.52;83.57
53874;BME280;62246;50.938;4.058;2022-08-19T00:26:14;101511.91;;;18.42;84.22
53874;BME280;62246;50.938;4.058;2022-08-19T00:28:40;101513.63;;;18.34;84.41
53874;BME280;62246;50.938;4.058;2022-08-19T00:31:08;101508.66;;;18.39;84.21
53874;BME280;62246;50.938;4.058;2022-08-19T00:33:34;101507.03;;;18.28;84.91
53874;BME280;62246;50.938;4.058;2022-08-19T00:36:00;101505.88;;;18.12;85.54
53874;BME280;62246;50.938;4.058;2022-08-19T00:38:26;101502.53;;;18.01;86.63
53874;BME280;62246;50.938;4.058;2022-08-19T00:40:52;101499.03;;;17.90;86.53
53874;BME280;62246;50.938;4.058;2022-08-19T00:43:23;101500.72;;;17.91;87.26
53874;BME280;62246;50.938;4.058;2022-08-19T00:45:49;101497.63;;;17.96;86.27
53874;BME280;62246;50.938;4.058;2022-08-19T00:48:16;101499.19;;;17.89;86.72
53874;BME280;62246;50.938;4.058;2022-08-19T00:50:43;101500.88;;;17.80;86.74
53874;BME280;62246;50.938;4.058;2022-08-19T00:53:11;101499.91;;;17.81;86.53
53874;BME280;62246;50.938;4.058;2022-08-19T00:55:38;101501.00;;;17.88;85.71
53874;BME280;62246;50.938;4.058;2022-08-19T00:58:08;101504.13;;;17.84;86.52
53874;BME280;62246;50.938;4.058;2022-08-19T01:00:36;101508.91;;;17.80;86.96
53874;BME280;62246;50.938;4.058;2022-08-19T01:03:18;101505.00;;;17.74;87.96
53874;BME280;62246;50.938;4.058;2022-08-19T01:05:45;101511.66;;;17.60;88.34
53874;BME280;62246;50.938;4.058;2022-08-19T01:08:14;101505.31;;;17.61;87.92
53874;BME280;62246;50.938;4.058;2022-08-19T01:10:44;101498.13;;;17.62;87.41
53874;BME280;62246;50.938;4.058;2022-08-19T01:13:13;101502.63;;;17.61;87.60
53874;BME280;62246;50.938;4.058;2022-08-19T01:15:43;101496.03;;;17.56;87.73
53874;BME280;62246;50.938;4.058;2022-08-19T01:18:12;101505.06;;;17.55;87.93
53874;BME280;62246;50.938;4.058;2022-08-19T01:20:39;101498.56;;;17.47;88.36
53874;BME280;62246;50.938;4.058;2022-08-19T01:23:05;101510.13;;;17.38;88.86
53874;BME280;62246;50.938;4.058;2022-08-19T01:25:52;101506.63;;;17.38;88.62
53874;BME280;62246;50.938;4.058;2022-08-19T01:28:23;101513.81;;;17.37;88.59
53874;BME280;62246;50.938;4.058;2022-08-19T01:30:51;101524.53;;;17.27;89.29
53874;BME280;62246;50.938;4.058;2022-08-19T01:33:18;101517.63;;;17.35;88.71
53874;BME280;62246;50.938;4.058;2022-08-19T01:35:45;101509.75;;;17.23;88.65
53874;BME280;62246;50.938;4.058;2022-08-19T01:38:26;101508.63;;;17.26;88.23
53874;BME280;62246;50.938;4.058;2022-08-19T01:40:52;101511.28;;;17.26;88.21
53874;BME280;62246;50.938;4.058;2022-08-19T01:43:18;101508.47;;;17.27;88.13
53874;BME280;62246;50.938;4.058;2022-08-19T01:45:44;101505.53;;;17.21;87.92
53874;BME280;62246;50.938;4.058;2022-08-19T01:48:10;101512.88;;;17.19;87.77
53874;BME280;62246;50.938;4.058;2022-08-19T01:50:36;101512.69;;;17.10;88.03
53874;BME280;62246;50.938;4.058;2022-08-19T01:53:04;101512.00;;;17.08;88.04
53874;BME280;62246;50.938;4.058;2022-08-19T01:55:30;101511.75;;;17.02;88.07
53874;BME280;62246;50.938;4.058;2022-08-19T01:58:00;101511.88;;;17.00;88.17
53874;BME280;62246;50.938;4.058;2022-08-19T02:00:29;101521.56;;;17.01;87.41
53874;BME280;62246;50.938;4.058;2022-08-19T02:02:56;101518.22;;;16.99;87.62
53874;BME280;62246;50.938;4.058;2022-08-19T02:05:21;101515.78;;;16.86;88.09
53874;BME280;62246;50.938;4.058;2022-08-19T02:07:48;101525.63;;;16.86;87.98
53874;BME280;62246;50.938;4.058;2022-08-19T02:10:18;101519.00;;;16.80;87.49
53874;BME280;62246;50.938;4.058;2022-08-19T02:12:45;101523.78;;;16.86;87.71
53874;BME280;62246;50.938;4.058;2022-08-19T02:15:11;101513.38;;;16.83;87.90
53874;BME280;62246;50.938;4.058;2022-08-19T02:17:37;101514.38;;;16.82;87.77
53874;BME280;62246;50.938;4.058;2022-08-19T02:20:03;101507.31;;;16.71;87.99
53874;BME280;62246;50.938;4.058;2022-08-19T02:22:29;101513.66;;;16.80;87.40
53874;BME280;62246;50.938;4.058;2022-08-19T02:24:54;101516.19;;;16.72;87.68
53874;BME280;62246;50.938;4.058;2022-08-19T02:27:21;101515.59;;;16.58;88.71
53874;BME280;62246;50.938;4.058;2022-08-19T02:29:48;101516.16;;;16.52;88.63
53874;BME280;62246;50.938;4.058;2022-08-19T02:32:14;101517.88;;;16.63;87.83
53874;BME280;62246;50.938;4.058;2022-08-19T02:34:40;101523.63;;;16.58;87.98
53874;BME280;62246;50.938;4.058;2022-08-19T02:37:06;101524.75;;;16.56;88.55
53874;BME280;62246;50.938;4.058;2022-08-19T02:39:51;101521.22;;;16.55;87.94
53874;BME280;62246;50.938;4.058;2022-08-19T02:42:17;101512.63;;;16.52;88.33
53874;BME280;62246;50.938;4.058;2022-08-19T02:44:42;101516.94;;;16.33;88.78
53874;BME280;62246;50.938;4.058;2022-08-19T02:47:07;101520.47;;;16.33;89.08
53874;BME280;62246;50.938;4.058;2022-08-19T02:49:34;101510.88;;;16.31;89.05
53874;BME280;62246;50.938;4.058;2022-08-19T02:51:59;101516.66;;;16.36;88.40
53874;BME280;62246;50.938;4.058;2022-08-19T02:54:25;101513.41;;;16.23;89.56
53874;BME280;62246;50.938;4.058;2022-08-19T02:56:51;101510.72;;;16.23;89.07
53874;BME280;62246;50.938;4.058;2022-08-19T02:59:16;101506.50;;;16.20;89.20
53874;BME280;62246;50.938;4.058;2022-08-19T03:01:42;101504.56;;;16.22;88.96
53874;BME280;62246;50.938;4.058;2022-08-19T03:04:09;101509.00;;;16.12;89.60
53874;BME280;62246;50.938;4.058;2022-08-19T03:06:37;101504.47;;;16.03;90.08
53874;BME280;62246;50.938;4.058;2022-08-19T03:09:03;101509.41;;;16.07;89.61
53874;BME280;62246;50.938;4.058;2022-08-19T03:11:30;101512.22;;;16.06;89.94
53874;BME280;62246;50.938;4.058;2022-08-19T03:13:57;101509.00;;;16.02;90.03
53874;BME280;62246;50.938;4.058;2022-08-19T03:16:25;101505.44;;;16.02;90.02
53874;BME280;62246;50.938;4.058;2022-08-19T03:18:52;101500.63;;;15.95;90.23
53874;BME280;62246;50.938;4.058;2022-08-19T03:21:21;101499.50;;;15.88;90.99
53874;BME280;62246;50.938;4.058;2022-08-19T03:23:49;101504.09;;;15.86;90.96
53874;BME280;62246;50.938;4.058;2022-08-19T03:26:14;101511.28;;;15.86;90.66
53874;BME280;62246;50.938;4.058;2022-08-19T03:28:41;101509.72;;;15.83;91.48
53874;BME280;62246;50.938;4.058;2022-08-19T03:31:10;101505.81;;;15.87;90.92
53874;BME280;62246;50.938;4.058;2022-08-19T03:33:38;101509.59;;;15.85;91.43
53874;BME280;62246;50.938;4.058;2022-08-19T03:36:15;101514.94;;;15.85;91.39
53874;BME280;62246;50.938;4.058;2022-08-19T03:38:46;101502.03;;;15.90;91.30
53874;BME280;62246;50.938;4.058;2022-08-19T03:41:19;101495.84;;;15.89;91.26
53874;BME280;62246;50.938;4.058;2022-08-19T03:43:45;101496.69;;;15.90;91.21
53874;BME280;62246;50.938;4.058;2022-08-19T03:46:20;101487.25;;;15.86;91.37
53874;BME280;62246;50.938;4.058;2022-08-19T03:48:47;101493.72;;;15.83;91.29
53874;BME280;62246;50.938;4.058;2022-08-19T03:51:23;101492.88;;;15.82;91.17
53874;BME280;62246;50.938;4.058;2022-08-19T03:53:50;101506.56;;;15.78;90.96
53874;BME280;62246;50.938;4.058;2022-08-19T03:56:16;101500.41;;;15.77;90.94
53874;BME280;62246;50.938;4.058;2022-08-19T03:58:42;101494.56;;;15.84;90.69
53874;BME280;62246;50.938;4.058;2022-08-19T04:01:09;101502.47;;;15.74;91.45
53874;BME280;62246;50.938;4.058;2022-08-19T04:03:35;101500.22;;;15.69;91.11
53874;BME280;62246;50.938;4.058;2022-08-19T04:06:28;101501.19;;;15.68;90.91
53874;BME280;62246;50.938;4.058;2022-08-19T04:08:55;101513.16;;;15.74;90.44
53874;BME280;62246;50.938;4.058;2022-08-19T04:11:27;101508.66;;;15.74;90.14
53874;BME280;62246;50.938;4.058;2022-08-19T04:13:53;101504.47;;;15.72;90.30
53874;BME280;62246;50.938;4.058;2022-08-19T04:16:20;101510.63;;;15.72;90.30
53874;BME280;62246;50.938;4.058;2022-08-19T04:18:47;101510.59;;;15.62;91.27
53874;BME280;62246;50.938;4.058;2022-08-19T04:21:18;101509.66;;;15.73;90.98
53874;BME280;62246;50.938;4.058;2022-08-19T04:23:44;101513.03;;;15.75;90.45
53874;BME280;62246;50.938;4.058;2022-08-19T04:26:19;101513.75;;;15.77;89.83
53874;BME280;62246;50.938;4.058;2022-08-19T04:28:45;101515.94;;;15.62;91.26
53874;BME280;62246;50.938;4.058;2022-08-19T04:31:17;101513.28;;;15.72;90.85
53874;BME280;62246;50.938;4.058;2022-08-19T04:33:43;101521.16;;;15.74;90.00
53874;BME280;62246;50.938;4.058;2022-08-19T04:36:17;101513.03;;;15.75;90.58
53874;BME280;62246;50.938;4.058;2022-08-19T04:38:46;101517.22;;;15.68;90.65
53874;BME280;62246;50.938;4.058;2022-08-19T04:41:12;101517.06;;;15.70;90.93
53874;BME280;62246;50.938;4.058;2022-08-19T04:43:56;101522.22;;;15.61;91.08
53874;BME280;62246;50.938;4.058;2022-08-19T04:46:21;101513.25;;;15.62;90.37
53874;BME280;62246;50.938;4.058;2022-08-19T04:48:47;101512.66;;;15.59;91.37
53874;BME280;62246;50.938;4.058;2022-08-19T04:51:12;101518.13;;;15.57;91.51
53874;BME280;62246;50.938;4.058;2022-08-19T04:53:40;101516.72;;;15.53;91.95
53874;BME280;62246;50.938;4.058;2022-08-19T04:56:12;101511.88;;;15.47;92.58
53874;BME280;62246;50.938;4.058;2022-08-19T04:58:40;101507.72;;;15.54;91.90
53874;BME280;62246;50.938;4.058;2022-08-19T05:01:14;101501.41;;;15.55;92.03
53874;BME280;62246;50.938;4.058;2022-08-19T05:03:42;101517.53;;;15.54;91.84
53874;BME280;62246;50.938;4.058;2022-08-19T05:06:13;101515.06;;;15.62;91.19
53874;BME280;62246;50.938;4.058;2022-08-19T05:08:40;101523.06;;;15.62;91.17
53874;BME280;62246;50.938;4.058;2022-08-19T05:11:28;101522.78;;;15.65;91.19
53874;BME280;62246;50.938;4.058;2022-08-19T05:13:56;101522.00;;;15.74;90.86
53874;BME280;62246;50.938;4.058;2022-08-19T05:16:23;101521.91;;;15.76;90.66
53874;BME280;62246;50.938;4.058;2022-08-19T05:18:49;101524.66;;;15.74;91.34
53874;BME280;62246;50.938;4.058;2022-08-19T05:21:34;101512.00;;;15.66;91.74
53874;BME280;62246;50.938;4.058;2022-08-19T05:24:20;101519.47;;;15.73;91.76
53874;BME280;62246;50.938;4.058;2022-08-19T05:26:47;101522.88;;;15.75;91.52
53874;BME280;62246;50.938;4.058;2022-08-19T05:29:19;101517.88;;;15.81;91.08
53874;BME280;62246;50.938;4.058;2022-08-19T05:31:45;101526.22;;;15.98;90.94
53874;BME280;62246;50.938;4.058;2022-08-19T05:34:12;101531.03;;;16.04;90.17
53874;BME280;62246;50.938;4.058;2022-08-19T05:36:42;101527.22;;;15.97;90.86
53874;BME280;62246;50.938;4.058;2022-08-19T05:39:10;101526.97;;;16.10;90.30
53874;BME280;62246;50.938;4.058;2022-08-19T05:41:37;101519.13;;;16.08;90.42
53874;BME280;62246;50.938;4.058;2022-08-19T05:44:06;101525.63;;;16.15;90.42
53874;BME280;62246;50.938;4.058;2022-08-19T05:46:34;101529.94;;;16.07;90.66
53874;BME280;62246;50.938;4.058;2022-08-19T05:49:00;101528.28;;;16.15;90.27
53874;BME280;62246;50.938;4.058;2022-08-19T05:51:26;101529.66;;;16.10;90.99
53874;BME280;62246;50.938;4.058;2022-08-19T05:53:51;101527.19;;;16.18;90.37
53874;BME280;62246;50.938;4.058;2022-08-19T05:56:17;101527.06;;;16.29;90.22
53874;BME280;62246;50.938;4.058;2022-08-19T05:58:44;101527.06;;;16.29;90.29
53874;BME280;62246;50.938;4.058;2022-08-19T06:01:16;101533.50;;;16.27;90.18
53874;BME280;62246;50.938;4.058;2022-08-19T06:03:42;101530.91;;;16.37;89.88
53874;BME280;62246;50.938;4.058;2022-08-19T06:06:09;101531.75;;;16.47;89.65
53874;BME280;62246;50.938;4.058;2022-08-19T06:08:36;101543.72;;;16.53;89.11
53874;BME280;62246;50.938;4.058;2022-08-19T06:11:21;101531.19;;;16.53;89.29
53874;BME280;62246;50.938;4.058;2022-08-19T06:13:50;101545.44;;;16.63;88.22
53874;BME280;62246;50.938;4.058;2022-08-19T06:16:19;101536.97;;;16.48;89.31
53874;BME280;62246;50.938;4.058;2022-08-19T06:18:48;101539.50;;;16.60;89.04
53874;BME280;62246;50.938;4.058;2022-08-19T06:21:13;101538.97;;;16.76;88.62
53874;BME280;62246;50.938;4.058;2022-08-19T06:23:39;101541.31;;;17.00;87.88
53874;BME280;62246;50.938;4.058;2022-08-19T06:26:05;101533.97;;;17.02;87.37
53874;BME280;62246;50.938;4.058;2022-08-19T06:28:31;101535.81;;;17.21;86.87
53874;BME280;62246;50.938;4.058;2022-08-19T06:30:58;101534.09;;;17.49;86.05
53874;BME280;62246;50.938;4.058;2022-08-19T06:33:23;101536.00;;;17.67;85.34
53874;BME280;62246;50.938;4.058;2022-08-19T06:35:49;101546.06;;;17.45;85.87
53874;BME280;62246;50.938;4.058;2022-08-19T06:38:14;101542.13;;;17.49;86.21
53874;BME280;62246;50.938;4.058;2022-08-19T06:40:40;101537.59;;;17.60;86.04
53874;BME280;62246;50.938;4.058;2022-08-19T06:43:05;101547.16;;;17.62;86.26
53874;BME280;62246;50.938;4.058;2022-08-19T06:45:30;101539.56;;;17.58;86.54
53874;BME280;62246;50.938;4.058;2022-08-19T06:47:57;101538.53;;;17.78;86.10
53874;BME280;62246;50.938;4.058;2022-08-19T06:50:23;101535.41;;;17.83;85.52
53874;BME280;62246;50.938;4.058;2022-08-19T06:52:49;101540.63;;;17.94;85.18
53874;BME280;62246;50.938;4.058;2022-08-19T06:55:15;101537.94;;;17.94;85.40
53874;BME280;62246;50.938;4.058;2022-08-19T06:57:41;101544.78;;;18.07;84.75
53874;BME280;62246;50.938;4.058;2022-08-19T07:00:09;101543.50;;;18.11;84.55
53874;BME280;62246;50.938;4.058;2022-08-19T07:02:44;101532.13;;;18.37;84.03
53874;BME280;62246;50.938;4.058;2022-08-19T07:05:09;101544.59;;;18.74;82.82
53874;BME280;62246;50.938;4.058;2022-08-19T07:07:35;101542.78;;;18.92;81.86
53874;BME280;62246;50.938;4.058;2022-08-19T07:10:01;101548.00;;;19.12;81.21
53874;BME280;62246;50.938;4.058;2022-08-19T07:12:31;101551.91;;;19.00;81.11
53874;BME280;62246;50.938;4.058;2022-08-19T07:14:59;101541.59;;;18.77;82.45
53874;BME280;62246;50.938;4.058;2022-08-19T07:17:26;101547.44;;;18.72;82.65
53874;BME280;62246;50.938;4.058;2022-08-19T07:19:52;101547.63;;;18.89;82.63
53874;BME280;62246;50.938;4.058;2022-08-19T07:22:17;101546.69;;;18.98;82.34
53874;BME280;62246;50.938;4.058;2022-08-19T07:24:45;101543.47;;;18.94;82.63
53874;BME280;62246;50.938;4.058;2022-08-19T07:27:13;101546.94;;;19.05;82.02
53874;BME280;62246;50.938;4.058;2022-08-19T07:29:38;101542.78;;;18.92;82.68
53874;BME280;62246;50.938;4.058;2022-08-19T07:32:05;101539.94;;;18.94;82.98
53874;BME280;62246;50.938;4.058;2022-08-19T07:34:31;101553.44;;;19.02;82.25
53874;BME280;62246;50.938;4.058;2022-08-19T07:37:04;101555.19;;;19.11;82.67
53874;BME280;62246;50.938;4.058;2022-08-19T07:39:32;101559.75;;;19.11;82.80
53874;BME280;62246;50.938;4.058;2022-08-19T07:42:00;101555.84;;;19.05;82.85
53874;BME280;62246;50.938;4.058;2022-08-19T07:44:26;101545.53;;;19.01;83.38
53874;BME280;62246;50.938;4.058;2022-08-19T07:46:55;101550.00;;;19.10;83.19
53874;BME280;62246;50.938;4.058;2022-08-19T07:49:21;101553.22;;;19.13;83.39
53874;BME280;62246;50.938;4.058;2022-08-19T07:52:07;101559.19;;;19.25;82.63
53874;BME280;62246;50.938;4.058;2022-08-19T07:54:35;101565.94;;;19.29;82.49
53874;BME280;62246;50.938;4.058;2022-08-19T07:57:02;101569.94;;;19.25;82.93
53874;BME280;62246;50.938;4.058;2022-08-19T07:59:28;101567.84;;;19.37;82.32
53874;BME280;62246;50.938;4.058;2022-08-19T08:01:55;101564.56;;;19.25;82.84
53874;BME280;62246;50.938;4.058;2022-08-19T08:04:21;101566.53;;;19.23;83.26
53874;BME280;62246;50.938;4.058;2022-08-19T08:07:06;101569.69;;;19.37;82.77
53874;BME280;62246;50.938;4.058;2022-08-19T08:09:51;101570.00;;;19.34;83.07
53874;BME280;62246;50.938;4.058;2022-08-19T08:12:20;101567.25;;;19.25;83.20
53874;BME280;62246;50.938;4.058;2022-08-19T08:14:50;101571.69;;;19.35;83.32
53874;BME280;62246;50.938;4.058;2022-08-19T08:17:18;101571.91;;;19.41;83.19
53874;BME280;62246;50.938;4.058;2022-08-19T08:19:44;101575.19;;;19.53;82.70
53874;BME280;62246;50.938;4.058;2022-08-19T08:22:13;101573.34;;;19.54;82.66
53874;BME280;62246;50.938;4.058;2022-08-19T08:25:18;101580.56;;;19.53;82.81
53874;BME280;62246;50.938;4.058;2022-08-19T08:27:45;101577.31;;;19.68;82.25
53874;BME280;62246;50.938;4.058;2022-08-19T08:30:14;101576.31;;;19.69;82.62
53874;BME280;62246;50.938;4.058;2022-08-19T08:32:41;101582.72;;;19.76;82.17
53874;BME280;62246;50.938;4.058;2022-08-19T08:35:10;101584.66;;;19.84;82.12
53874;BME280;62246;50.938;4.058;2022-08-19T08:37:35;101589.06;;;19.67;82.41
53874;BME280;62246;50.938;4.058;2022-08-19T08:40:17;101582.81;;;19.84;82.15
53874;BME280;62246;50.938;4.058;2022-08-19T08:42:55;101591.09;;;19.91;81.86
53874;BME280;62246;50.938;4.058;2022-08-19T08:45:25;101593.38;;;20.12;81.45
53874;BME280;62246;50.938;4.058;2022-08-19T08:47:53;101596.06;;;20.12;81.20
53874;BME280;62246;50.938;4.058;2022-08-19T08:50:29;101591.00;;;20.01;81.66
53874;BME280;62246;50.938;4.058;2022-08-19T08:52:58;101586.97;;;20.05;81.58
53874;BME280;62246;50.938;4.058;2022-08-19T08:55:26;101593.38;;;20.12;81.41
53874;BME280;62246;50.938;4.058;2022-08-19T08:58:17;101597.13;;;20.19;81.17
53874;BME280;62246;50.938;4.058;2022-08-19T09:00:47;101599.50;;;20.22;81.00
53874;BME280;62246;50.938;4.058;2022-08-19T09:03:20;101598.91;;;20.37;81.09
53874;BME280;62246;50.938;4.058;2022-08-19T09:06:00;101594.88;;;20.41;80.65
53874;BME280;62246;50.938;4.058;2022-08-19T09:08:43;101592.75;;;20.53;80.29
53874;BME280;62246;50.938;4.058;2022-08-19T09:11:15;101586.16;;;20.39;80.48
53874;BME280;62246;50.938;4.058;2022-08-19T09:16:37;101590.06;;;20.61;80.01
53874;BME280;62246;50.938;4.058;2022-08-19T09:19:07;101584.88;;;20.59;80.15
53874;BME280;62246;50.938;4.058;2022-08-19T09:21:33;101594.34;;;20.37;80.80
53874;BME280;62246;50.938;4.058;2022-08-19T09:24:00;101605.16;;;20.45;80.78
53874;BME280;62246;50.938;4.058;2022-08-19T09:26:26;101598.09;;;20.44;80.71
53874;BME280;62246;50.938;4.058;2022-08-19T09:28:52;101601.31;;;20.48;80.48
53874;BME280;62246;50.938;4.058;2022-08-19T09:31:25;101605.31;;;20.44;81.04
53874;BME280;62246;50.938;4.058;2022-08-19T09:33:51;101604.81;;;20.40;81.33
53874;BME280;62246;50.938;4.058;2022-08-19T09:36:19;101590.75;;;20.55;80.49
53874;BME280;62246;50.938;4.058;2022-08-19T09:38:44;101603.88;;;20.66;79.49
53874;BME280;62246;50.938;4.058;2022-08-19T09:41:13;101600.19;;;20.67;79.75
53874;BME280;62246;50.938;4.058;2022-08-19T09:43:40;101606.53;;;20.58;80.04
53874;BME280;62246;50.938;4.058;2022-08-19T09:46:08;101611.88;;;20.41;80.99
53874;BME280;62246;50.938;4.058;2022-08-19T09:48:41;101612.53;;;20.43;81.18
53874;BME280;62246;50.938;4.058;2022-08-19T09:51:10;101605.03;;;20.55;80.77
53874;BME280;62246;50.938;4.058;2022-08-19T09:53:37;101611.91;;;20.50;80.82
53874;BME280;62246;50.938;4.058;2022-08-19T09:56:04;101611.91;;;20.50;80.10
53874;BME280;62246;50.938;4.058;2022-08-19T09:58:31;101614.38;;;20.69;79.66
53874;BME280;62246;50.938;4.058;2022-08-19T10:00:58;101605.34;;;21.03;78.47
53874;BME280;62246;50.938;4.058;2022-08-19T10:03:25;101603.88;;;21.17;77.92
53874;BME280;62246;50.938;4.058;2022-08-19T10:05:52;101608.38;;;21.00;78.49
53874;BME280;62246;50.938;4.058;2022-08-19T10:08:24;101611.22;;;20.90;78.49
53874;BME280;62246;50.938;4.058;2022-08-19T10:10:54;101608.03;;;20.87;78.80
53874;BME280;62246;50.938;4.058;2022-08-19T10:13:21;101605.63;;;20.75;79.85
53874;BME280;62246;50.938;4.058;2022-08-19T10:15:53;101612.50;;;20.70;80.23
53874;BME280;62246;50.938;4.058;2022-08-19T10:18:20;101610.84;;;20.77;80.61
53874;BME280;62246;50.938;4.058;2022-08-19T10:20:50;101614.22;;;20.79;80.61
53874;BME280;62246;50.938;4.058;2022-08-19T10:23:19;101611.72;;;20.86;80.72
53874;BME280;62246;50.938;4.058;2022-08-19T10:25:44;101601.25;;;20.74;81.53
53874;BME280;62246;50.938;4.058;2022-08-19T10:28:10;101603.78;;;20.76;81.36
53874;BME280;62246;50.938;4.058;2022-08-19T10:30:38;101603.00;;;21.17;80.56
53874;BME280;62246;50.938;4.058;2022-08-19T10:33:05;101602.03;;;21.42;79.14
53874;BME280;62246;50.938;4.058;2022-08-19T10:35:31;101608.59;;;21.56;78.51
53874;BME280;62246;50.938;4.058;2022-08-19T10:37:56;101602.88;;;21.92;76.58
53874;BME280;62246;50.938;4.058;2022-08-19T10:40:27;101601.16;;;21.42;77.46
53874;BME280;62246;50.938;4.058;2022-08-19T10:42:54;101594.31;;;21.39;78.01
53874;BME280;62246;50.938;4.058;2022-08-19T10:45:21;101595.28;;;21.05;79.03
53874;BME280;62246;50.938;4.058;2022-08-19T10:47:52;101600.25;;;20.84;80.34
53874;BME280;62246;50.938;4.058;2022-08-19T10:50:18;101600.47;;;21.07;79.47
53874;BME280;62246;50.938;4.058;2022-08-19T10:53:07;101597.13;;;21.38;78.26
53874;BME280;62246;50.938;4.058;2022-08-19T10:55:35;101604.56;;;21.36;77.77
53874;BME280;62246;50.938;4.058;2022-08-19T10:58:21;101600.88;;;21.78;76.53
53874;BME280;62246;50.938;4.058;2022-08-19T11:00:56;101590.88;;;22.03;75.29
53874;BME280;62246;50.938;4.058;2022-08-19T11:03:22;101593.50;;;22.36;74.05
53874;BME280;62246;50.938;4.058;2022-08-19T11:06:05;101589.44;;;22.40;73.29
53874;BME280;62246;50.938;4.058;2022-08-19T11:08:31;101594.66;;;22.73;72.56
53874;BME280;62246;50.938;4.058;2022-08-19T11:10:59;101594.06;;;23.18;71.66
53874;BME280;62246;50.938;4.058;2022-08-19T11:13:31;101597.38;;;22.96;70.74
53874;BME280;62246;50.938;4.058;2022-08-19T11:16:02;101595.34;;;22.99;70.63
53874;BME280;62246;50.938;4.058;2022-08-19T11:18:28;101585.94;;;22.94;71.61
53874;BME280;62246;50.938;4.058;2022-08-19T11:20:54;101584.50;;;23.07;71.04
53874;BME280;62246;50.938;4.058;2022-08-19T11:23:19;101586.16;;;22.85;71.82
53874;BME280;62246;50.938;4.058;2022-08-19T11:25:45;101590.16;;;22.66;72.39
53874;BME280;62246;50.938;4.058;2022-08-19T11:28:11;101597.69;;;22.39;72.93
53874;BME280;62246;50.938;4.058;2022-08-19T11:30:38;101599.69;;;22.45;72.85
53874;BME280;62246;50.938;4.058;2022-08-19T11:33:03;101603.78;;;22.24;73.38
53874;BME280;62246;50.938;4.058;2022-08-19T11:35:29;101599.19;;;22.73;72.34
53874;BME280;62246;50.938;4.058;2022-08-19T11:37:54;101594.44;;;22.83;71.97
53874;BME280;62246;50.938;4.058;2022-08-19T11:40:23;101597.56;;;22.63;71.44
53874;BME280;62246;50.938;4.058;2022-08-19T11:42:48;101601.38;;;22.77;71.50
53874;BME280;62246;50.938;4.058;2022-08-19T11:45:27;101588.56;;;23.03;70.93
53874;BME280;62246;50.938;4.058;2022-08-19T11:47:53;101595.59;;;22.89;70.45
53874;BME280;62246;50.938;4.058;2022-08-19T11:50:19;101591.72;;;23.15;69.99
53874;BME280;62246;50.938;4.058;2022-08-19T11:52:44;101585.34;;;23.54;68.46
53874;BME280;62246;50.938;4.058;2022-08-19T11:55:11;101596.44;;;23.59;68.47
53874;BME280;62246;50.938;4.058;2022-08-19T11:57:37;101582.84;;;23.29;67.98
53874;BME280;62246;50.938;4.058;2022-08-19T12:00:04;101592.06;;;23.35;68.68
53874;BME280;62246;50.938;4.058;2022-08-19T12:02:31;101588.75;;;23.48;67.97
53874;BME280;62246;50.938;4.058;2022-08-19T12:04:57;101585.91;;;23.26;68.55
53874;BME280;62246;50.938;4.058;2022-08-19T12:07:22;101590.38;;;23.10;68.37
53874;BME280;62246;50.938;4.058;2022-08-19T12:09:48;101585.22;;;23.01;68.57
53874;BME280;62246;50.938;4.058;2022-08-19T12:12:13;101585.50;;;23.14;68.84
53874;BME280;62246;50.938;4.058;2022-08-19T12:14:39;101591.19;;;23.57;67.46
53874;BME280;62246;50.938;4.058;2022-08-19T12:17:04;101589.19;;;23.74;66.90
53874;BME280;62246;50.938;4.058;2022-08-19T12:19:32;101590.84;;;23.60;67.01
53874;BME280;62246;50.938;4.058;2022-08-19T12:22:00;101582.53;;;24.15;64.95
53874;BME280;62246;50.938;4.058;2022-08-19T12:24:30;101584.56;;;24.13;64.75
53874;BME280;62246;50.938;4.058;2022-08-19T12:26:56;101582.22;;;23.80;65.45
53874;BME280;62246;50.938;4.058;2022-08-19T12:29:24;101584.38;;;24.00;65.31
53874;BME280;62246;50.938;4.058;2022-08-19T12:31:54;101581.00;;;24.27;65.07
53874;BME280;62246;50.938;4.058;2022-08-19T12:34:28;101579.53;;;23.95;64.49
53874;BME280;62246;50.938;4.058;2022-08-19T12:36:58;101578.59;;;24.33;64.05
53874;BME280;62246;50.938;4.058;2022-08-19T12:39:24;101583.09;;;24.25;64.11
53874;BME280;62246;50.938;4.058;2022-08-19T12:41:50;101576.53;;;23.75;65.26
53874;BME280;62246;50.938;4.058;2022-08-19T12:44:16;101578.59;;;24.33;64.55
53874;BME280;62246;50.938;4.058;2022-08-19T12:46:42;101581.59;;;24.08;64.22
53874;BME280;62246;50.938;4.058;2022-08-19T12:49:07;101573.88;;;24.20;64.50
53874;BME280;62246;50.938;4.058;2022-08-19T12:51:32;101568.50;;;23.82;66.26
53874;BME280;62246;50.938;4.058;2022-08-19T12:53:59;101577.88;;;23.71;66.46
53874;BME280;62246;50.938;4.058;2022-08-19T12:56:24;101571.06;;;23.60;66.61
53874;BME280;62246;50.938;4.058;2022-08-19T12:58:50;101570.88;;;23.61;66.90
53874;BME280;62246;50.938;4.058;2022-08-19T13:01:17;101561.81;;;23.39;66.28